createdAt,value
2023-03-28T00:00:34.323Z,3.10
2023-03-28T00:03:01.231Z,3.10
2023-03-28T00:05:29.342Z,3.10
2023-03-28T00:07:56.759Z,3.10
2023-03-28T00:10:24.055Z,3.10
2023-03-28T00:12:50.942Z,3.20
2023-03-28T00:15:17.779Z,3.20
2023-03-28T00:17:44.603Z,3.10
2023-03-28T00:20:12.979Z,3.10
2023-03-28T00:22:39.996Z,3.20
2023-03-28T00:25:07.962Z,3.20
2023-03-28T00:27:36.205Z,3.20
2023-03-28T00:30:08.129Z,3.10
2023-03-28T00:32:34.915Z,3.10
2023-03-28T00:35:01.618Z,3.00
2023-03-28T00:37:28.348Z,2.90
2023-03-28T00:42:23.781Z,2.90
2023-03-28T00:44:58.479Z,2.90
2023-03-28T00:47:28.062Z,2.90
2023-03-28T00:50:00.220Z,2.80
2023-03-28T00:52:30.271Z,2.80
2023-03-28T00:54:57.940Z,2.90
2023-03-28T00:57:26.286Z,2.90
2023-03-28T00:59:53.403Z,2.90
2023-03-28T01:02:20.235Z,3.00
2023-03-28T01:05:00.847Z,3.00
2023-03-28T01:07:33.250Z,3.00
2023-03-28T01:10:01.524Z,3.00
2023-03-28T01:12:28.251Z,3.00
2023-03-28T01:14:55.969Z,3.00
2023-03-28T01:17:22.797Z,2.90
2023-03-28T01:20:08.847Z,2.90
2023-03-28T01:22:57.256Z,2.80
2023-03-28T01:25:38.429Z,2.80
2023-03-28T01:28:40.772Z,2.80
2023-03-28T01:31:29.402Z,2.70
2023-03-28T01:36:44.239Z,2.70
2023-03-28T01:39:39.162Z,2.70
2023-03-28T01:42:20.519Z,2.70
2023-03-28T01:45:01.616Z,2.60
2023-03-28T01:47:40.110Z,2.60
2023-03-28T01:50:18.256Z,2.60
2023-03-28T01:53:22.968Z,2.60
2023-03-28T01:56:14.265Z,2.60
2023-03-28T01:58:46.494Z,2.60
2023-03-28T02:01:23.114Z,2.50
2023-03-28T02:03:54.458Z,2.50
2023-03-28T02:06:23.052Z,2.40
2023-03-28T02:08:52.526Z,2.40
2023-03-28T02:11:19.484Z,2.50
2023-03-28T02:14:01.383Z,2.50
2023-03-28T02:16:31.104Z,2.40
2023-03-28T02:18:59.592Z,2.40
2023-03-28T02:21:35.409Z,2.40
2023-03-28T02:24:02.357Z,2.30
2023-03-28T02:28:58.130Z,2.30
2023-03-28T02:31:25.526Z,2.40
2023-03-28T02:33:53.122Z,2.40
2023-03-28T02:36:31.746Z,2.50
2023-03-28T02:39:01.540Z,2.60
2023-03-28T02:41:46.764Z,2.60
2023-03-28T02:44:58.192Z,2.50
2023-03-28T02:47:39.077Z,2.50
2023-03-28T02:50:48.836Z,2.60
2023-03-28T02:53:38.464Z,2.60
2023-03-28T02:56:08.159Z,2.60
2023-03-28T02:58:59.839Z,2.60
2023-03-28T03:01:29.201Z,2.60
2023-03-28T03:03:58.314Z,2.50
2023-03-28T03:06:25.249Z,2.60
2023-03-28T03:08:51.969Z,2.60
2023-03-28T03:11:18.725Z,2.60
2023-03-28T03:13:45.534Z,2.60
2023-03-28T03:18:39.621Z,2.60
2023-03-28T03:21:06.803Z,2.60
2023-03-28T03:23:33.474Z,2.60
2023-03-28T03:26:00.646Z,2.60
2023-03-28T03:28:27.674Z,2.60
2023-03-28T03:30:54.356Z,2.60
2023-03-28T03:33:21.365Z,2.60
2023-03-28T03:35:48.124Z,2.60
2023-03-28T03:38:14.933Z,2.60
2023-03-28T03:40:41.744Z,2.60
2023-03-28T03:43:08.462Z,2.60
2023-03-28T03:45:35.536Z,2.50
2023-03-28T03:48:02.366Z,2.60
2023-03-28T03:50:29.316Z,2.60
2023-03-28T03:52:58.066Z,2.50
2023-03-28T03:55:26.601Z,2.60
2023-03-28T03:57:53.296Z,2.60
2023-03-28T04:00:20.366Z,2.60
2023-03-28T04:02:48.112Z,2.50
2023-03-28T04:05:15.028Z,2.50
2023-03-28T04:07:42.211Z,2.50
2023-03-28T04:10:09.462Z,2.50
2023-03-28T04:15:04.391Z,2.50
2023-03-28T04:17:35.325Z,2.40
2023-03-28T04:20:11.538Z,2.40
2023-03-28T04:25:13.784Z,2.30
2023-03-28T04:27:41.929Z,2.40
2023-03-28T04:30:09.915Z,2.30
2023-03-28T04:32:37.776Z,2.30
2023-03-28T04:35:04.937Z,2.30
2023-03-28T04:40:01.603Z,2.20
2023-03-28T04:44:55.559Z,2.20
2023-03-28T04:47:22.683Z,2.30
2023-03-28T04:49:49.476Z,2.20
2023-03-28T04:52:16.211Z,2.30
2023-03-28T04:59:37.367Z,2.30
2023-03-28T05:02:04.253Z,2.30
2023-03-28T05:04:31.187Z,2.30
2023-03-28T05:06:58.106Z,2.30
2023-03-28T05:09:24.920Z,2.30
2023-03-28T05:14:18.859Z,2.30
2023-03-28T05:16:45.645Z,2.20
2023-03-28T05:19:12.650Z,2.20
2023-03-28T05:24:08.604Z,2.20
2023-03-28T05:26:36.530Z,2.20
2023-03-28T05:29:03.880Z,2.20
2023-03-28T05:31:30.960Z,2.20
2023-03-28T05:33:57.707Z,2.20
2023-03-28T05:36:24.479Z,2.20
2023-03-28T05:41:18.667Z,2.20
2023-03-28T05:43:45.388Z,2.20
2023-03-28T05:46:12.211Z,2.30
2023-03-28T05:48:39.062Z,2.20
2023-03-28T05:51:06.260Z,2.20
2023-03-28T05:53:32.998Z,2.20
2023-03-28T05:55:59.698Z,2.10
2023-03-28T05:58:26.450Z,2.10
2023-03-28T06:00:53.189Z,2.10
2023-03-28T06:03:20.068Z,2.20
2023-03-28T06:05:47.082Z,2.20
2023-03-28T06:08:13.781Z,2.20
2023-03-28T06:10:40.580Z,2.20
2023-03-28T06:13:07.365Z,2.30
2023-03-28T06:15:34.066Z,2.40
2023-03-28T06:20:28.192Z,2.30
2023-03-28T06:22:54.882Z,2.30
2023-03-28T06:25:21.645Z,2.40
2023-03-28T06:27:48.368Z,2.50
2023-03-28T06:30:15.461Z,2.60
2023-03-28T06:32:42.257Z,2.90
2023-03-28T06:35:09.197Z,3.30
2023-03-28T06:37:35.955Z,3.50
2023-03-28T06:40:03.556Z,4.00
2023-03-28T06:42:30.475Z,6.10
2023-03-28T06:44:57.166Z,7.40
2023-03-28T06:47:23.905Z,7.70
2023-03-28T06:49:50.603Z,7.80
2023-03-28T06:52:17.492Z,6.80
2023-03-28T06:54:45.307Z,6.90
2023-03-28T06:57:13.447Z,8.20
2023-03-28T06:59:40.187Z,8.70
2023-03-28T07:02:07.126Z,9.60
2023-03-28T07:04:35.072Z,10.60
2023-03-28T07:07:01.951Z,10.50
2023-03-28T07:09:28.802Z,10.10
2023-03-28T07:11:55.636Z,10.80
2023-03-28T07:14:22.554Z,9.50
2023-03-28T07:16:49.361Z,10.20
2023-03-28T07:19:16.088Z,10.50
2023-03-28T07:21:42.938Z,11.20
2023-03-28T07:24:09.690Z,10.80
2023-03-28T07:26:36.597Z,10.20
2023-03-28T07:29:03.772Z,10.30
2023-03-28T07:31:31.033Z,9.90
2023-03-28T07:33:58.197Z,9.60
2023-03-28T07:36:27.576Z,8.00
2023-03-28T07:38:54.553Z,7.80
2023-03-28T07:41:22.721Z,8.80
2023-03-28T07:43:49.762Z,10.10
2023-03-28T07:46:16.531Z,10.50
2023-03-28T07:48:43.437Z,10.60
2023-03-28T07:51:11.010Z,10.50
2023-03-28T07:53:39.077Z,10.50
2023-03-28T07:56:11.852Z,10.30
2023-03-28T07:58:39.912Z,9.50
2023-03-28T08:01:12.677Z,9.50
2023-03-28T08:03:40.353Z,10.00
2023-03-28T08:06:20.650Z,10.30
2023-03-28T08:08:57.271Z,10.70
2023-03-28T08:11:23.982Z,10.60
2023-03-28T08:13:50.710Z,10.30
2023-03-28T08:16:17.683Z,10.40
2023-03-28T08:18:44.663Z,10.40
2023-03-28T08:21:11.336Z,10.70
2023-03-28T08:23:38.171Z,10.40
2023-03-28T08:26:07.337Z,10.10
2023-03-28T08:28:35.703Z,10.10
2023-03-28T08:31:03.331Z,9.90
2023-03-28T08:33:32.751Z,10.10
2023-03-28T08:35:59.575Z,10.00
2023-03-28T08:38:27.047Z,9.60
2023-03-28T08:41:19.674Z,9.50
2023-03-28T08:44:17.004Z,10.00
2023-03-28T08:46:45.499Z,9.60
2023-03-28T08:49:17.184Z,9.40
2023-03-28T08:52:05.446Z,9.40
2023-03-28T08:54:42.705Z,9.20
2023-03-28T08:57:17.566Z,9.20
2023-03-28T09:00:14.939Z,9.50
2023-03-28T09:02:43.580Z,9.20
2023-03-28T09:05:23.715Z,8.90
2023-03-28T09:08:26.988Z,9.00
2023-03-28T09:11:26.043Z,8.90
2023-03-28T09:14:29.523Z,8.80
2023-03-28T09:17:08.218Z,9.30
2023-03-28T09:20:21.471Z,9.50
2023-03-28T09:23:07.177Z,9.90
2023-03-28T09:25:40.254Z,10.00
2023-03-28T09:28:37.474Z,9.70
2023-03-28T09:31:09.306Z,9.20
2023-03-28T09:33:40.640Z,9.60
2023-03-28T09:36:18.932Z,9.60
2023-03-28T09:39:41.320Z,10.00
2023-03-28T09:42:32.786Z,10.20
2023-03-28T09:45:02.564Z,10.10
2023-03-28T09:47:29.343Z,9.70
2023-03-28T09:50:09.507Z,9.00
2023-03-28T09:52:40.246Z,8.60
2023-03-28T09:55:20.146Z,8.60
2023-03-28T09:58:08.914Z,8.50
2023-03-28T10:00:54.965Z,8.90
2023-03-28T10:06:01.616Z,8.90
2023-03-28T10:08:38.805Z,9.10
2023-03-28T10:11:06.867Z,9.00
2023-03-28T10:13:42.410Z,9.00
2023-03-28T10:16:13.332Z,9.50
2023-03-28T10:18:42.049Z,9.50
2023-03-28T10:21:18.519Z,9.70
2023-03-28T10:23:50.673Z,9.60
2023-03-28T10:26:23.457Z,9.60
2023-03-28T10:28:54.547Z,9.10
2023-03-28T10:31:29.434Z,9.00
2023-03-28T10:33:59.264Z,9.00
2023-03-28T10:36:44.518Z,9.80
2023-03-28T10:39:23.939Z,10.70
2023-03-28T10:42:02.120Z,10.40
2023-03-28T10:44:30.640Z,9.80
2023-03-28T10:47:07.096Z,9.20
2023-03-28T10:49:47.073Z,9.00
2023-03-28T10:52:41.817Z,8.70
2023-03-28T10:55:14.659Z,9.10
2023-03-28T10:57:59.728Z,9.00
2023-03-28T11:00:32.809Z,8.90
2023-03-28T11:03:38.512Z,8.60
2023-03-28T11:06:17.556Z,8.50
2023-03-28T11:09:17.087Z,8.50
2023-03-28T11:11:49.343Z,8.50
2023-03-28T11:14:35.823Z,8.60
2023-03-28T11:17:07.921Z,8.70
2023-03-28T11:19:42.494Z,8.70
2023-03-28T11:22:37.483Z,8.80
2023-03-28T11:25:49.151Z,8.60
2023-03-28T11:28:37.302Z,8.40
2023-03-28T11:31:04.586Z,8.30
2023-03-28T11:33:48.064Z,8.40
2023-03-28T11:36:25.599Z,8.50
2023-03-28T11:38:59.480Z,8.40
2023-03-28T11:41:31.834Z,8.30
2023-03-28T11:44:11.634Z,8.30
2023-03-28T11:47:01.325Z,8.20
2023-03-28T11:49:34.505Z,8.10
2023-03-28T11:52:28.340Z,7.60
2023-03-28T11:55:17.537Z,7.60
2023-03-28T11:57:57.754Z,7.80
2023-03-28T12:01:06.831Z,8.00
2023-03-28T12:03:52.192Z,8.50
2023-03-28T12:06:39.456Z,8.80
2023-03-28T12:09:24.533Z,9.10
2023-03-28T12:12:13.801Z,9.20
2023-03-28T12:15:12.306Z,9.40
2023-03-28T12:17:50.482Z,9.20
2023-03-28T12:20:32.067Z,9.10
2023-03-28T12:23:04.490Z,8.80
2023-03-28T12:25:35.194Z,8.40
2023-03-28T12:28:26.347Z,8.40
2023-03-28T12:30:59.494Z,8.70
2023-03-28T12:33:40.919Z,8.80
2023-03-28T12:36:10.741Z,8.70
2023-03-28T12:38:46.160Z,8.80
2023-03-28T12:41:19.162Z,8.90
2023-03-28T12:43:52.104Z,8.80
2023-03-28T12:46:27.521Z,8.80
2023-03-28T12:48:58.140Z,9.60
2023-03-28T12:51:30.225Z,10.00
2023-03-28T12:54:20.352Z,10.10
2023-03-28T12:56:58.294Z,9.70
2023-03-28T12:59:40.674Z,9.60
2023-03-28T13:02:21.769Z,9.70
2023-03-28T13:04:56.238Z,9.90
2023-03-28T13:07:53.593Z,9.80
2023-03-28T13:10:42.175Z,10.00
2023-03-28T13:13:46.202Z,10.00
2023-03-28T13:16:24.093Z,9.70
2023-03-28T13:19:11.345Z,9.90
2023-03-28T13:21:55.550Z,9.30
2023-03-28T13:24:28.474Z,9.30
2023-03-28T13:27:12.480Z,9.00
2023-03-28T13:29:58.221Z,8.90
2023-03-28T13:32:25.815Z,9.00
2023-03-28T13:34:59.858Z,9.10
2023-03-28T13:37:37.667Z,9.00
2023-03-28T13:40:07.419Z,8.80
2023-03-28T13:42:34.955Z,8.80
2023-03-28T13:45:12.979Z,8.60
2023-03-28T13:47:41.655Z,8.70
2023-03-28T13:50:13.854Z,9.10
2023-03-28T13:52:41.761Z,9.40
2023-03-28T13:55:23.011Z,9.20
2023-03-28T13:57:51.323Z,9.00
2023-03-28T14:00:25.983Z,9.10
2023-03-28T14:02:54.888Z,9.00
2023-03-28T14:05:26.273Z,8.80
2023-03-28T14:07:55.341Z,8.90
2023-03-28T14:10:28.973Z,8.60
2023-03-28T14:13:05.773Z,8.90
2023-03-28T14:15:36.691Z,8.80
2023-03-28T14:18:04.037Z,8.70
2023-03-28T14:20:32.979Z,8.70
2023-03-28T14:23:01.419Z,8.80
2023-03-28T14:25:29.480Z,9.20
2023-03-28T14:27:57.463Z,9.00
2023-03-28T14:30:30.861Z,8.60
2023-03-28T14:33:24.246Z,8.80
2023-03-28T14:36:06.117Z,9.00
2023-03-28T14:38:36.357Z,9.00
2023-03-28T14:41:06.238Z,8.80
2023-03-28T14:43:33.242Z,8.50
2023-03-28T14:46:08.539Z,8.60
2023-03-28T14:48:38.228Z,8.80
2023-03-28T14:51:05.936Z,9.20
2023-03-28T14:53:42.899Z,9.20
2023-03-28T14:56:13.103Z,9.50
2023-03-28T14:58:43.911Z,9.50
2023-03-28T15:01:22.624Z,9.60
2023-03-28T15:04:02.973Z,9.40
2023-03-28T15:06:29.976Z,9.30
2023-03-28T15:08:59.803Z,9.30
2023-03-28T15:11:36.276Z,8.90
2023-03-28T15:14:33.957Z,8.90
2023-03-28T15:17:01.004Z,9.00
2023-03-28T15:19:41.169Z,9.10
2023-03-28T15:22:21.444Z,9.30
2023-03-28T15:24:48.351Z,9.20
2023-03-28T15:27:27.781Z,9.10
2023-03-28T15:29:55.738Z,9.20
2023-03-28T15:32:23.092Z,9.00
2023-03-28T15:35:03.217Z,8.90
2023-03-28T15:37:41.335Z,8.90
2023-03-28T15:40:27.894Z,8.90
2023-03-28T15:42:56.459Z,8.90
2023-03-28T15:45:41.551Z,8.80
2023-03-28T15:48:17.709Z,8.60
2023-03-28T15:50:50.339Z,8.50
2023-03-28T15:53:25.517Z,8.30
2023-03-28T15:55:52.485Z,8.20
2023-03-28T15:58:21.684Z,8.20
2023-03-28T16:00:55.187Z,8.10
2023-03-28T16:03:26.941Z,8.20
2023-03-28T16:06:04.613Z,8.20
2023-03-28T16:08:40.556Z,8.20
2023-03-28T16:11:32.079Z,8.30
2023-03-28T16:14:01.348Z,8.40
2023-03-28T16:16:29.882Z,8.40
2023-03-28T16:18:56.728Z,8.40
2023-03-28T16:21:23.962Z,8.40
2023-03-28T16:23:50.816Z,8.30
2023-03-28T16:26:17.632Z,8.30
2023-03-28T16:28:44.427Z,8.40
2023-03-28T16:31:14.961Z,8.30
2023-03-28T16:33:42.011Z,8.10
2023-03-28T16:36:12.123Z,8.10
2023-03-28T16:38:39.001Z,8.00
2023-03-28T16:41:06.245Z,8.00
2023-03-28T16:43:33.120Z,8.10
2023-03-28T16:46:00.237Z,8.00
2023-03-28T16:48:27.270Z,8.00
2023-03-28T16:50:55.996Z,7.90
2023-03-28T16:53:22.824Z,7.80
2023-03-28T16:55:50.745Z,7.80
2023-03-28T16:58:17.756Z,7.80
2023-03-28T17:00:44.638Z,7.90
2023-03-28T17:03:11.670Z,7.90
2023-03-28T17:05:38.846Z,7.90
2023-03-28T17:08:05.860Z,7.90
2023-03-28T17:10:32.788Z,7.90
2023-03-28T17:13:02.371Z,7.90
2023-03-28T17:15:31.920Z,7.90
2023-03-28T17:17:59.695Z,7.70
2023-03-28T17:20:27.197Z,7.70
2023-03-28T17:22:53.952Z,7.70
2023-03-28T17:25:23.416Z,7.70
2023-03-28T17:27:50.260Z,7.70
2023-03-28T17:30:17.083Z,7.80
2023-03-28T17:32:44.135Z,7.70
2023-03-28T17:35:12.198Z,7.70
2023-03-28T17:37:39.503Z,7.70
2023-03-28T17:40:07.240Z,7.70
2023-03-28T17:42:34.069Z,7.70
2023-03-28T17:45:01.175Z,7.70
2023-03-28T17:49:57.036Z,7.70
2023-03-28T17:52:24.491Z,7.60
2023-03-28T17:54:51.584Z,7.60
2023-03-28T17:57:18.690Z,7.50
2023-03-28T17:59:45.590Z,7.50
2023-03-28T18:02:12.464Z,7.50
2023-03-28T18:04:40.726Z,7.40
2023-03-28T18:07:16.142Z,7.40
2023-03-28T18:09:44.863Z,7.30
2023-03-28T18:12:13.149Z,7.20
2023-03-28T18:14:40.057Z,7.10
2023-03-28T18:17:07.273Z,7.00
2023-03-28T18:19:34.128Z,7.10
2023-03-28T18:22:00.936Z,7.00
2023-03-28T18:24:28.063Z,7.00
2023-03-28T18:26:55.130Z,6.90
2023-03-28T18:29:22.091Z,6.90
2023-03-28T18:31:49.242Z,6.90
2023-03-28T18:34:16.072Z,6.90
2023-03-28T18:36:43.953Z,6.90
2023-03-28T18:39:10.970Z,6.90
2023-03-28T18:41:38.384Z,6.90
2023-03-28T18:44:05.766Z,6.90
2023-03-28T18:49:00.791Z,6.80
2023-03-28T18:51:28.793Z,6.80
2023-03-28T18:53:55.702Z,6.80
2023-03-28T18:56:22.973Z,6.80
2023-03-28T18:58:50.453Z,6.80
2023-03-28T19:01:18.636Z,6.80
2023-03-28T19:03:47.219Z,6.80
2023-03-28T19:06:15.720Z,6.70
2023-03-28T19:08:43.896Z,6.70
2023-03-28T19:11:13.982Z,6.70
2023-03-28T19:13:41.625Z,6.70
2023-03-28T19:16:13.835Z,6.60
2023-03-28T19:18:42.569Z,6.60
2023-03-28T19:21:11.135Z,6.50
2023-03-28T19:23:38.265Z,6.40
2023-03-28T19:26:09.615Z,6.40
2023-03-28T19:28:36.455Z,6.40
2023-03-28T19:31:06.508Z,6.40
2023-03-28T19:33:34.218Z,6.40
2023-03-28T19:36:01.489Z,6.40
2023-03-28T19:38:30.738Z,6.30
2023-03-28T19:40:59.403Z,6.30
2023-03-28T19:43:27.175Z,6.20
2023-03-28T19:45:54.110Z,6.20
2023-03-28T19:48:21.091Z,6.20
2023-03-28T19:50:50.333Z,6.20
2023-03-28T19:53:17.173Z,6.20
2023-03-28T19:55:49.915Z,6.20
2023-03-28T19:58:16.668Z,6.20
2023-03-28T20:00:43.475Z,6.30
2023-03-28T20:03:10.533Z,6.40
2023-03-28T20:05:42.287Z,6.40
2023-03-28T20:08:09.883Z,6.40
2023-03-28T20:10:44.189Z,6.50
2023-03-28T20:13:11.475Z,6.60
2023-03-28T20:15:41.419Z,6.70
2023-03-28T20:18:10.171Z,6.70
2023-03-28T20:20:44.015Z,6.80
2023-03-28T20:23:11.790Z,6.80
2023-03-28T20:25:38.577Z,6.80
2023-03-28T20:28:05.396Z,7.00
2023-03-28T20:30:32.515Z,7.00
2023-03-28T20:32:59.405Z,6.90
2023-03-28T20:35:27.417Z,6.90
2023-03-28T20:37:54.692Z,6.90
2023-03-28T20:40:23.098Z,7.00
2023-03-28T20:42:52.606Z,6.90
2023-03-28T20:45:22.525Z,6.90
2023-03-28T20:47:56.766Z,6.90
2023-03-28T20:50:34.046Z,6.90
2023-03-28T20:53:02.286Z,6.90
2023-03-28T20:55:29.843Z,6.90
2023-03-28T20:57:56.988Z,6.90
2023-03-28T21:00:24.831Z,6.80
2023-03-28T21:02:53.759Z,6.80
2023-03-28T21:05:22.466Z,6.70
2023-03-28T21:07:49.664Z,6.70
2023-03-28T21:10:16.702Z,6.70
2023-03-28T21:12:43.835Z,6.70
2023-03-28T21:15:15.066Z,6.70
2023-03-28T21:17:42.000Z,6.60
2023-03-28T21:20:10.507Z,6.60
2023-03-28T21:22:38.094Z,6.50
2023-03-28T21:25:06.425Z,6.50
2023-03-28T21:27:34.675Z,6.60
2023-03-28T21:30:04.272Z,6.60
2023-03-28T21:32:33.141Z,6.60
2023-03-28T21:35:00.961Z,6.70
2023-03-28T21:37:27.827Z,6.70
2023-03-28T21:39:54.548Z,6.80
2023-03-28T21:42:21.584Z,6.80
2023-03-28T21:44:48.312Z,6.80
2023-03-28T21:47:15.069Z,6.80
2023-03-28T21:49:43.236Z,6.80
2023-03-28T21:52:09.956Z,6.80
2023-03-28T21:54:36.677Z,6.80
2023-03-28T21:57:03.508Z,6.80
2023-03-28T21:59:30.296Z,6.80
2023-03-28T22:01:57.079Z,6.80
2023-03-28T22:04:23.903Z,6.70
2023-03-28T22:06:51.512Z,6.60
2023-03-28T22:09:19.527Z,6.60
2023-03-28T22:11:47.439Z,6.60
2023-03-28T22:14:14.191Z,6.60
2023-03-28T22:16:41.000Z,6.60
2023-03-28T22:19:09.581Z,6.60
2023-03-28T22:21:37.445Z,6.60
2023-03-28T22:24:07.098Z,6.60
2023-03-28T22:26:33.936Z,6.60
2023-03-28T22:29:00.749Z,6.50
2023-03-28T22:31:28.304Z,6.50
2023-03-28T22:33:55.741Z,6.60
2023-03-28T22:36:22.645Z,6.60
2023-03-28T22:38:49.411Z,6.60
2023-03-28T22:41:16.191Z,6.60
2023-03-28T22:43:43.370Z,6.60
2023-03-28T22:46:12.746Z,6.60
2023-03-28T22:48:39.662Z,6.60
2023-03-28T22:51:11.699Z,6.60
2023-03-28T22:53:39.771Z,6.60
2023-03-28T22:56:07.473Z,6.60
2023-03-28T22:58:34.315Z,6.60
2023-03-28T23:01:01.265Z,6.60
2023-03-28T23:03:28.245Z,6.60
2023-03-28T23:05:55.267Z,6.60
2023-03-28T23:08:22.251Z,6.60
2023-03-28T23:10:49.199Z,6.60
2023-03-28T23:13:16.459Z,6.60
2023-03-28T23:15:43.834Z,6.60
2023-03-28T23:18:10.914Z,6.60
2023-03-28T23:20:38.195Z,6.50
2023-03-28T23:23:05.090Z,6.50
2023-03-28T23:25:32.940Z,6.50
2023-03-28T23:27:59.987Z,6.40
2023-03-28T23:30:27.056Z,6.40
2023-03-28T23:32:53.816Z,6.50
2023-03-28T23:35:20.829Z,6.40
2023-03-28T23:37:47.542Z,6.40
2023-03-28T23:40:15.015Z,6.40
2023-03-28T23:42:43.805Z,6.40
2023-03-28T23:45:13.084Z,6.30
2023-03-28T23:47:40.026Z,6.30
2023-03-28T23:50:08.801Z,6.40
2023-03-28T23:52:36.503Z,6.20
2023-03-28T23:55:03.470Z,6.20
2023-03-28T23:57:30.156Z,6.20
2023-03-28T23:59:56.918Z,6.10
